Time;durP1;ratioP1;P1;durP2;ratioP2;P2;SDS_P1;SDS_P2;PMS_P1;PMS_P2;Temp;Humidity;BMP_temperature;BMP_pressure;BME280_temperature;BME280_humidity;BME280_pressure;Samples;Min_cycle;Max_cycle;Signal;HPM_P1;HPM_P2
2022/06/11 00:01:08;;;;;;;8.95;6.57;;;;;;;17.40;100.00;68702.63;4937832;28;20043;-86
2022/06/11 00:03:34;;;;;;;15.32;7.10;;;;;;;17.34;100.00;68701.72;5001857;28;20145;-86
2022/06/11 00:05:59;;;;;;;13.57;6.93;;;;;;;17.27;100.00;68688.38;5026260;28;20041;-86
2022/06/11 00:08:25;;;;;;;11.48;7.18;;;;;;;17.25;100.00;68680.16;5026687;28;20096;-86
2022/06/11 00:10:51;;;;;;;11.95;7.45;;;;;;;17.25;100.00;68685.53;5027219;28;20033;-86
2022/06/11 00:13:17;;;;;;;9.43;7.25;;;;;;;17.23;100.00;68681.13;5024638;28;20409;-86
2022/06/11 00:15:43;;;;;;;10.95;6.80;;;;;;;17.22;100.00;68682.66;5026977;28;20065;-86
2022/06/11 00:18:09;;;;;;;13.43;7.80;;;;;;;17.16;100.00;68675.81;5026804;28;20041;-86
2022/06/11 00:20:34;;;;;;;13.43;7.75;;;;;;;17.15;100.00;68674.69;5024850;28;20049;-86
2022/06/11 00:22:59;;;;;;;14.38;7.40;;;;;;;17.13;100.00;68672.41;5024437;28;20053;-86
2022/06/11 00:25:26;;;;;;;11.85;8.23;;;;;;;17.12;100.00;68671.28;5025807;28;20041;-86
2022/06/11 00:27:51;;;;;;;11.95;7.90;;;;;;;17.10;100.00;68669.00;5027285;28;20040;-86
2022/06/11 00:30:18;;;;;;;12.05;7.80;;;;;;;17.00;100.00;68663.50;5009448;28;20412;-86
2022/06/11 00:32:44;;;;;;;12.15;7.65;;;;;;;16.96;100.00;68653.03;5025925;28;20535;-86
2022/06/11 00:35:11;;;;;;;13.65;8.63;;;;;;;16.92;100.00;68649.59;5026233;28;20042;-86
2022/06/11 00:37:37;;;;;;;13.02;8.10;;;;;;;;;;5009235;28;20041;-86
2022/06/11 00:40:03;;;;;;;11.45;7.97;;;;;;;16.86;100.00;68642.75;5024898;28;20080;-86
2022/06/11 00:42:33;;;;;;;11.88;7.88;;;;;;;16.77;100.00;68631.91;5021214;28;20056;-86
2022/06/11 00:45:12;;;;;;;11.40;8.73;;;;;;;16.74;100.00;68628.47;5007386;28;20044;-87
2022/06/11 00:47:38;;;;;;;12.77;9.50;;;;;;;16.66;100.00;68617.81;5020695;28;20048;-86
2022/06/11 00:50:18;;;;;;;12.88;9.25;;;;;;;16.68;100.00;68622.19;5009376;28;20056;-86
2022/06/11 00:52:45;;;;;;;14.02;10.70;;;;;;;;;;5022290;28;20041;-87
2022/06/11 00:55:13;;;;;;;16.20;10.68;;;;;;;16.81;100.00;68636.47;5026705;28;20045;-87
2022/06/11 00:57:43;;;;;;;18.23;11.88;;;;;;;16.91;100.00;68643.06;5023953;28;20047;-87
2022/06/11 01:00:18;;;;;;;18.35;12.27;;;;;;;16.99;100.00;68653.75;5024681;28;20083;-86
2022/06/11 01:02:45;;;;;;;15.57;10.60;;;;;;;17.02;100.00;68655.03;4973593;28;20056;-87
2022/06/11 01:05:15;;;;;;;16.98;10.50;;;;;;;17.07;100.00;68660.19;5020914;28;20500;-87
2022/06/11 01:07:59;;;;;;;18.02;11.30;;;;;;;17.13;100.00;68672.41;5023221;28;20053;-87
2022/06/11 01:10:31;;;;;;;17.30;10.05;;;;;;;17.12;100.00;68671.84;5017126;28;20050;-86
2022/06/11 01:13:12;;;;;;;18.65;12.38;;;;;;;;;;5018513;28;20497;-86
2022/06/11 01:15:44;;;;;;;17.42;11.25;;;;;;;17.18;100.00;68675.44;5018889;28;20049;-87
2022/06/11 01:18:18;;;;;;;15.70;11.00;;;;;;;17.15;100.00;68674.69;5024434;28;20038;-86
2022/06/11 01:21:16;;;;;;;14.60;11.38;;;;;;;17.09;100.00;68667.84;4994943;28;20620;-86
2022/06/11 01:23:57;;;;;;;21.58;10.98;;;;;;;17.04;100.00;68662.16;4977095;28;20520;-86
2022/06/11 01:26:53;;;;;;;20.15;11.50;;;;;;;17.04;100.00;68659.47;5026738;28;20037;-86
2022/06/11 01:29:30;;;;;;;15.82;11.77;;;;;;;17.00;100.00;68658.13;5003617;28;20072;-86
2022/06/11 01:32:04;;;;;;;17.40;11.57;;;;;;;17.00;100.00;68654.88;5022356;28;20072;-86
2022/06/11 01:34:54;;;;;;;15.18;11.60;;;;;;;17.02;100.00;68659.84;5020639;28;20041;-86
2022/06/11 01:37:25;;;;;;;16.27;11.63;;;;;;;;;;5008892;28;20472;-86
2022/06/11 01:39:59;;;;;;;15.80;12.10;;;;;;;17.02;100.00;68659.84;5027324;28;20069;-86
2022/06/11 01:42:37;;;;;;;16.10;11.48;;;;;;;16.96;100.00;68658.41;4990791;28;20050;-86
2022/06/11 01:45:36;;;;;;;17.45;12.55;;;;;;;16.96;100.00;68653.03;5029238;28;20034;-86
2022/06/11 01:48:05;;;;;;;18.40;12.45;;;;;;;16.92;100.00;68649.03;4981818;28;20052;-86
2022/06/11 01:50:34;;;;;;;15.20;12.32;;;;;;;16.90;100.00;68652.69;5020487;28;20037;-86
2022/06/11 01:53:28;;;;;;;17.83;12.23;;;;;;;16.86;100.00;68648.13;5025414;28;20148;-87
2022/06/11 01:56:11;;;;;;;21.45;13.57;;;;;;;16.84;100.00;68640.47;4985613;28;20049;-86
2022/06/11 01:58:59;;;;;;;19.10;12.50;;;;;;;16.76;100.00;68628.06;5010504;28;20053;-86
2022/06/11 02:01:58;;;;;;;22.92;13.20;;;;;;;16.75;100.00;68626.94;5011150;28;20045;-86
2022/06/11 02:04:55;;;;;;;19.02;12.98;;;;;;;16.69;100.00;68623.34;5024081;28;20038;-86
2022/06/11 02:07:46;;;;;;;18.52;13.07;;;;;;;;;;5020654;28;20518;-86
2022/06/11 02:10:23;;;;;;;19.52;13.73;;;;;;;16.62;100.00;68615.94;5019034;28;20129;-86
2022/06/11 02:12:54;;;;;;;21.30;14.23;;;;;;;16.59;100.00;68611.94;4984865;28;20115;-86
2022/06/11 02:15:36;;;;;;;19.00;13.85;;;;;;;16.56;100.00;68603.16;5028602;28;20041;-86
2022/06/11 02:18:08;;;;;;;20.77;14.75;;;;;;;16.47;100.00;68596.16;5003363;28;20037;-86
2022/06/11 02:20:47;;;;;;;20.42;15.02;;;;;;;16.43;100.00;68592.16;5009878;28;20386;-86
2022/06/11 02:23:17;;;;;;;18.35;15.40;;;;;;;16.35;100.00;68583.03;5008656;28;20108;-86
2022/06/11 02:25:53;;;;;;;20.70;15.57;;;;;;;16.31;100.00;68581.16;5025828;28;20038;-87
2022/06/11 02:28:26;;;;;;;22.85;15.52;;;;;;;16.26;100.00;68572.78;5027923;28;20037;-86
2022/06/11 02:30:53;;;;;;;23.52;16.90;;;;;;;;;;5010240;28;20097;-86
2022/06/11 02:33:21;;;;;;;20.02;16.08;;;;;;;16.24;100.00;68578.56;5007106;28;20065;-86
2022/06/11 02:35:50;;;;;;;25.70;17.10;;;;;;;16.22;100.00;68565.53;5025522;28;20093;-85
2022/06/11 02:38:18;;;;;;;27.42;19.63;;;;;;;16.17;100.00;68565.78;5028463;28;20338;-86
2022/06/11 02:40:49;;;;;;;28.23;17.83;;;;;;;;;;5026949;28;20048;-86
2022/06/11 02:43:14;;;;;;;21.30;17.38;;;;;;;16.13;100.00;68557.94;5023235;28;20041;-86
2022/06/11 02:45:40;;;;;;;22.88;15.40;;;;;;;16.09;100.00;68561.47;5010416;28;20456;-86
2022/06/11 02:48:05;;;;;;;22.60;15.57;;;;;;;;;;5023413;28;20510;-86
2022/06/11 02:50:33;;;;;;;19.25;14.93;;;;;;;16.07;100.00;68551.13;5024297;28;20072;-86
2022/06/11 02:53:01;;;;;;;18.47;14.00;;;;;;;16.06;100.00;68552.66;5027621;28;20029;-86
2022/06/11 02:55:26;;;;;;;20.45;13.55;;;;;;;16.01;100.00;68548.09;5023583;28;20053;-86
2022/06/11 02:57:53;;;;;;;17.13;12.48;;;;;;;15.92;100.00;68537.84;5022485;28;20030;-85
2022/06/11 03:00:22;;;;;;;17.10;11.60;;;;;;;15.95;100.00;68541.25;5029658;28;20034;-86
2022/06/11 03:02:48;;;;;;;14.32;10.73;;;;;;;15.95;100.00;68540.69;5026007;28;20072;-86
2022/06/11 03:05:20;;;;;;;15.02;11.07;;;;;;;15.89;100.00;68539.81;5022756;28;20104;-86
2022/06/11 03:07:47;;;;;;;17.77;11.07;;;;;;;15.89;100.00;68533.88;5007148;28;20523;-86
2022/06/11 03:10:16;;;;;;;18.70;10.95;;;;;;;15.85;100.00;68534.66;5012252;28;20044;-86
2022/06/11 03:12:42;;;;;;;17.88;11.68;;;;;;;15.84;100.00;68523.38;5027825;28;20226;-86
2022/06/11 03:15:07;;;;;;;16.98;12.02;;;;;;;;;;5027031;28;20045;-86
2022/06/11 03:17:33;;;;;;;15.65;11.77;;;;;;;15.69;100.00;68512.22;5026340;28;20137;-85
2022/06/11 03:19:58;;;;;;;17.13;13.18;;;;;;;15.64;100.00;68506.50;5017585;28;20057;-86
2022/06/11 03:22:24;;;;;;;22.20;13.77;;;;;;;15.63;100.00;68505.34;5014263;28;20045;-87
2022/06/11 03:24:49;;;;;;;22.05;15.45;;;;;;;15.65;100.00;68507.06;5007764;28;20559;-86
2022/06/11 03:27:17;;;;;;;17.25;13.13;;;;;;;15.62;100.00;68500.94;5023270;28;20451;-86
2022/06/11 03:29:42;;;;;;;20.00;13.40;;;;;;;;;;5024512;28;20404;-86
2022/06/11 03:32:08;;;;;;;17.25;12.55;;;;;;;;;;5026426;28;20046;-86
2022/06/11 03:34:35;;;;;;;19.90;13.38;;;;;;;15.60;100.00;68501.94;5026671;28;20153;-86
2022/06/11 03:37:02;;;;;;;20.80;14.60;;;;;;;15.60;100.00;68499.25;5010708;28;20033;-86
2022/06/11 03:39:27;;;;;;;19.98;14.43;;;;;;;15.55;100.00;68502.16;5027844;28;20044;-86
2022/06/11 03:41:54;;;;;;;21.17;16.20;;;;;;;15.52;100.00;68493.38;5025692;28;20045;-85
2022/06/11 03:44:19;;;;;;;23.80;17.05;;;;;;;15.44;100.00;68484.28;5025378;28;20033;-86
2022/06/11 03:46:44;;;;;;;25.73;16.40;;;;;;;15.44;100.00;68484.28;5022881;28;20472;-86
2022/06/11 03:49:10;;;;;;;21.90;15.90;;;;;;;15.43;100.00;68483.13;5020456;28;20037;-86
2022/06/11 03:51:36;;;;;;;21.10;15.48;;;;;;;15.43;100.00;68483.13;5009844;28;20456;-86
2022/06/11 03:54:01;;;;;;;19.40;14.55;;;;;;;;;;5028418;28;20055;-86
2022/06/11 03:56:27;;;;;;;17.77;13.88;;;;;;;15.45;100.00;68490.78;5025951;28;20041;-86
2022/06/11 03:58:53;;;;;;;15.60;12.52;;;;;;;15.44;100.00;68489.06;5027931;28;20049;-85
2022/06/11 04:01:19;;;;;;;15.68;13.35;;;;;;;;;;5026497;28;20046;-85
2022/06/11 04:03:49;;;;;;;16.45;11.52;;;;;;;;;;5027665;28;20065;-85
2022/06/11 04:06:19;;;;;;;15.00;10.82;;;;;;;15.49;100.00;68489.41;5009163;28;20049;-86
2022/06/11 04:08:44;;;;;;;;;;;;;;;15.50;100.00;68490.53;5028018;28;20053;-86
2022/06/11 04:11:11;;;;;;;15.88;11.32;;;;;;;15.46;100.00;68483.88;5025799;28;19970;-86
2022/06/11 04:13:39;;;;;;;14.68;10.60;;;;;;;15.45;100.00;68484.84;5021881;28;20049;-86
2022/06/11 04:16:05;;;;;;;14.98;10.05;;;;;;;15.50;100.00;68491.09;5002979;28;20040;-86
2022/06/11 04:18:36;;;;;;;13.88;8.73;;;;;;;15.55;100.00;68491.44;5026540;28;20064;-86
2022/06/11 04:21:03;;;;;;;13.65;8.90;;;;;;;;;;5019376;28;20060;-86
2022/06/11 04:23:29;;;;;;;12.80;9.25;;;;;;;15.61;100.00;68503.06;5018410;28;20045;-86
2022/06/11 04:25:56;;;;;;;16.38;9.48;;;;;;;;;;5027783;28;20067;-86
2022/06/11 04:28:22;;;;;;;15.68;9.18;;;;;;;;;;5022024;28;20042;-87
2022/06/11 04:30:47;;;;;;;10.73;8.45;;;;;;;;;;5022334;28;20145;-86
2022/06/11 04:33:12;;;;;;;15.77;9.15;;;;;;;15.74;100.00;68517.34;4999095;28;20049;-86
2022/06/11 04:35:38;;;;;;;10.10;7.03;;;;;;;;;;5028076;28;20095;-86
2022/06/11 04:38:03;;;;;;;13.93;8.52;;;;;;;15.80;100.00;68524.19;5026278;28;20045;-86
2022/06/11 04:40:29;;;;;;;13.45;7.20;;;;;;;15.85;100.00;68529.28;5034117;28;20045;-85
2022/06/11 04:42:54;;;;;;;10.50;6.78;;;;;;;;;;5011669;28;20091;-85
2022/06/11 04:45:20;;;;;;;11.00;6.60;;;;;;;15.91;100.00;68536.72;5008718;28;20123;-86
2022/06/11 04:47:45;;;;;;;11.90;6.22;;;;;;;15.97;100.00;68538.19;5008129;28;20049;-87
2022/06/11 04:50:15;;;;;;;8.30;5.47;;;;;;;16.00;100.00;68546.41;5003278;28;20048;-87
2022/06/11 04:52:41;;;;;;;8.75;5.35;;;;;;;16.06;100.00;68553.25;5025722;28;20841;-87
2022/06/11 04:55:06;;;;;;;7.47;4.82;;;;;;;;;;5022118;28;20037;-87
2022/06/11 04:57:32;;;;;;;6.55;4.20;;;;;;;16.12;100.00;68559.50;5005378;28;20488;-87
2022/06/11 04:59:57;;;;;;;8.88;4.70;;;;;;;16.19;99.99;68567.47;5009098;28;20045;-87
2022/06/11 05:02:23;;;;;;;11.85;4.65;;;;;;;16.24;99.41;68573.75;5024236;28;20047;-87
2022/06/11 05:04:48;;;;;;;10.77;4.47;;;;;;;16.24;98.51;68567.81;5020724;28;20091;-86
2022/06/11 05:07:14;;;;;;;6.72;4.00;;;;;;;16.25;97.63;68571.63;5027948;28;20488;-87
2022/06/11 05:09:39;;;;;;;8.68;4.22;;;;;;;16.26;97.34;68572.22;5024798;28;20129;-87
2022/06/11 05:12:07;;;;;;;7.15;3.65;;;;;;;16.28;95.91;68572.34;5020811;28;20029;-88
2022/06/11 05:14:33;;;;;;;9.60;3.83;;;;;;;16.30;95.39;68580.00;5026043;28;20041;-88
2022/06/11 05:16:59;;;;;;;6.93;3.45;;;;;;;16.33;94.93;68583.44;5023763;28;20052;-87
2022/06/11 05:19:25;;;;;;;10.23;4.03;;;;;;;16.33;93.92;68583.44;5026238;28;20041;-87
2022/06/11 05:21:51;;;;;;;7.43;2.92;;;;;;;16.34;92.83;68584.59;5026432;28;20067;-87
2022/06/11 05:24:19;;;;;;;8.65;3.40;;;;;;;16.38;92.38;68585.88;5009962;28;20037;-87
2022/06/11 05:27:02;;;;;;;9.07;3.35;;;;;;;16.38;91.61;68589.13;5026462;28;20695;-87
2022/06/11 05:29:40;;;;;;;8.63;3.75;;;;;;;16.42;91.37;68593.69;5013392;28;20691;-87
2022/06/11 05:32:06;;;;;;;9.27;3.87;;;;;;;16.42;90.85;68593.13;5006687;28;20041;-87
2022/06/11 05:34:32;;;;;;;10.80;3.92;;;;;;;16.46;90.87;68598.25;5020591;28;20195;-86
2022/06/11 05:36:59;;;;;;;7.80;2.80;;;;;;;16.50;90.55;68607.06;5027133;28;20042;-86
2022/06/11 05:39:25;;;;;;;6.50;2.50;;;;;;;16.49;88.60;68600.56;5025101;28;20564;-85
2022/06/11 05:41:51;;;;;;;10.20;3.33;;;;;;;16.52;89.06;68603.97;5006258;28;20043;-85
2022/06/11 05:44:16;;;;;;;9.98;2.90;;;;;;;;;;5018081;28;20045;-86
2022/06/11 05:46:42;;;;;;;12.02;3.83;;;;;;;16.54;88.59;68603.53;5024857;28;20549;-86
2022/06/11 05:49:14;;;;;;;9.40;3.28;;;;;;;;;;5001193;28;20045;-86
2022/06/11 05:51:43;;;;;;;9.10;3.10;;;;;;;16.56;88.21;68608.53;5022127;28;20049;-86
2022/06/11 05:54:14;;;;;;;10.52;3.28;;;;;;;16.63;88.30;68613.81;5001470;28;20176;-86
2022/06/11 05:56:40;;;;;;;8.52;3.15;;;;;;;16.66;87.50;68619.94;5022122;28;20042;-86
2022/06/11 05:59:15;;;;;;;8.45;3.33;;;;;;;16.67;87.93;68618.94;5026913;28;20047;-86
2022/06/11 06:01:41;;;;;;;7.43;3.22;;;;;;;16.68;87.41;68622.75;5005842;28;20037;-86
2022/06/11 06:04:07;;;;;;;10.80;3.38;;;;;;;16.71;87.41;68625.63;5025732;28;20056;-86
2022/06/11 06:06:33;;;;;;;6.47;2.80;;;;;;;16.72;86.36;68626.78;5008197;28;20493;-86
2022/06/11 06:08:58;;;;;;;9.00;3.00;;;;;;;;;;5027275;28;20125;-86
2022/06/11 06:11:25;;;;;;;11.27;3.22;;;;;;;16.80;86.23;68630.53;5026139;28;20128;-86
2022/06/11 06:13:52;;;;;;;9.95;3.28;;;;;;;16.85;85.32;68641.03;5008483;28;20044;-86
2022/06/11 06:16:20;;;;;;;8.75;2.90;;;;;;;16.79;83.96;68631.50;5020754;28;20058;-87
2022/06/11 06:18:48;;;;;;;8.45;2.38;;;;;;;16.78;84.89;68630.38;5010552;28;20432;-87
2022/06/11 06:21:14;;;;;;;6.32;2.80;;;;;;;16.80;84.34;68635.91;5028930;28;20476;-87
2022/06/11 06:23:40;;;;;;;9.65;3.05;;;;;;;16.81;84.86;68637.06;4994757;28;20045;-87
2022/06/11 06:26:06;;;;;;;11.63;3.38;;;;;;;16.84;84.40;68637.22;5021894;28;20409;-87
2022/06/11 06:28:32;;;;;;;7.18;2.83;;;;;;;;;;5026740;28;20038;-86
2022/06/11 06:30:59;;;;;;;9.13;2.70;;;;;;;;;;5007538;28;20362;-87
2022/06/11 06:33:26;;;;;;;10.45;3.20;;;;;;;16.91;84.78;68647.88;5025569;28;20075;-87
2022/06/11 06:35:51;;;;;;;12.35;3.55;;;;;;;16.99;85.23;68656.44;5010677;28;20072;-87
2022/06/11 06:38:17;;;;;;;11.38;3.15;;;;;;;17.02;83.54;68657.16;5029194;28;20613;-88
2022/06/11 06:40:42;;;;;;;11.07;3.30;;;;;;;17.11;83.30;68670.13;5023882;28;20033;-87
2022/06/11 06:43:08;;;;;;;10.70;3.47;;;;;;;17.15;82.65;68672.00;5009273;28;20038;-87
2022/06/11 06:45:34;;;;;;;8.00;3.17;;;;;;;17.17;81.97;68674.28;5027095;28;20076;-87
2022/06/11 06:47:59;;;;;;;9.70;2.95;;;;;;;17.22;81.83;68682.66;5029249;28;20410;-87
2022/06/11 06:50:25;;;;;;;10.63;3.10;;;;;;;17.19;81.81;68679.25;5026428;28;20452;-86
2022/06/11 06:52:50;;;;;;;14.85;3.67;;;;;;;17.32;81.97;68694.09;5025872;28;20038;-88
2022/06/11 06:55:16;;;;;;;12.77;2.97;;;;;;;17.34;81.08;68695.78;5028104;28;20041;-88
2022/06/11 06:57:41;;;;;;;9.63;2.72;;;;;;;17.41;80.32;68703.22;5027062;28;20065;-86
2022/06/11 07:00:09;;;;;;;14.20;3.42;;;;;;;17.30;78.56;68689.09;5028372;28;20428;-86
2022/06/11 07:02:34;;;;;;;10.77;3.03;;;;;;;17.37;80.68;68697.09;5009681;28;20045;-87
2022/06/11 07:05:00;;;;;;;12.35;4.32;;;;;;;17.36;80.25;68703.47;5028803;28;20562;-87
2022/06/11 07:07:25;;;;;;;12.38;2.85;;;;;;;;;;5026257;28;20044;-87
2022/06/11 07:09:56;;;;;;;11.63;3.05;;;;;;;17.52;81.36;68716.34;5027135;28;20095;-87
2022/06/11 07:12:22;;;;;;;12.68;3.25;;;;;;;17.62;80.82;68721.78;5026912;28;20034;-87
2022/06/11 07:14:47;;;;;;;14.07;3.35;;;;;;;17.67;79.97;68729.63;5007292;28;20477;-87
2022/06/11 07:17:15;;;;;;;14.40;3.53;;;;;;;17.73;80.30;68737.03;5025666;28;20121;-86
2022/06/11 07:19:47;;;;;;;10.68;3.92;;;;;;;17.65;78.68;68730.59;5027806;28;20034;-87
2022/06/11 07:22:32;;;;;;;12.13;2.45;;;;;;;17.76;79.36;68739.88;5022303;28;20061;-87
2022/06/11 07:25:01;;;;;;;9.35;2.72;;;;;;;17.76;78.97;68737.19;5024682;28;20111;-86
2022/06/11 07:27:32;;;;;;;9.50;3.03;;;;;;;17.76;79.46;68737.75;5004797;28;20048;-87
2022/06/11 07:30:08;;;;;;;16.80;3.45;;;;;;;17.76;78.47;68742.56;5005903;28;20059;-86
2022/06/11 07:32:35;;;;;;;11.10;3.60;;;;;;;;;;5008858;28;20037;-86
2022/06/11 07:35:05;;;;;;;11.75;3.53;;;;;;;17.94;78.75;68759.88;5027863;28;20053;-87
2022/06/11 07:37:32;;;;;;;12.00;3.20;;;;;;;18.01;78.34;68770.53;5010582;28;20142;-87
2022/06/11 07:39:58;;;;;;;10.50;3.30;;;;;;;17.96;78.21;68764.84;5025773;28;20042;-87
2022/06/11 07:42:24;;;;;;;10.90;3.97;;;;;;;;;;5026236;28;20045;-87
2022/06/11 07:44:50;;;;;;;13.23;3.30;;;;;;;18.01;77.56;68771.13;5023339;28;20802;-88
2022/06/11 07:47:53;;;;;;;15.65;3.72;;;;;;;18.12;78.74;68780.41;5009269;28;20029;-88
2022/06/11 07:50:01;;;;;;;13.13;3.13;;;;;;;18.09;77.13;68776.41;4995168;28;20535;-88
2022/06/11 07:52:26;;;;;;;13.27;3.63;;;;;;;18.18;77.24;68789.38;5027020;28;20056;-87
2022/06/11 07:54:51;;;;;;;13.10;3.63;;;;;;;18.24;76.92;68794.13;5026091;28;20072;-88
2022/06/11 07:57:17;;;;;;;12.63;3.65;;;;;;;18.33;76.63;68801.13;5008940;28;20037;-88
2022/06/11 07:59:42;;;;;;;11.70;3.85;;;;;;;18.40;76.23;68811.25;5009557;28;20457;-88
2022/06/11 08:02:07;;;;;;;12.40;3.78;;;;;;;18.56;76.21;68826.22;5026266;28;20091;-89
2022/06/11 08:04:34;;;;;;;15.27;3.47;;;;;;;18.64;75.56;68838.66;5008395;28;20047;-88
2022/06/11 08:06:59;;;;;;;11.30;3.10;;;;;;;18.71;74.80;68849.34;5008626;28;20037;-89
2022/06/11 08:09:25;;;;;;;11.65;3.60;;;;;;;18.75;73.90;68850.66;5014173;28;20771;-87
2022/06/11 08:11:50;;;;;;;12.00;4.07;;;;;;;18.84;74.30;68860.34;5007179;28;20583;-88
2022/06/11 08:14:15;;;;;;;15.00;3.97;;;;;;;19.00;73.90;68878.63;5023270;28;20053;-89
2022/06/11 08:16:41;;;;;;;14.00;4.43;;;;;;;18.97;74.41;68872.53;5025648;28;20103;-88
2022/06/11 08:19:06;;;;;;;12.43;3.78;;;;;;;18.94;74.86;68875.06;5028037;28;20041;-89
2022/06/11 08:21:32;;;;;;;13.63;4.05;;;;;;;19.03;75.39;68882.06;5025717;28;20038;-89
2022/06/11 08:23:57;;;;;;;13.98;3.97;;;;;;;19.19;73.61;68902.47;5028197;28;20141;-88
2022/06/11 08:26:22;;;;;;;15.52;4.05;;;;;;;19.19;73.65;68899.19;5027285;28;20042;-89
2022/06/11 08:28:48;;;;;;;15.80;4.00;;;;;;;19.27;73.39;68905.63;5014130;28;20062;-89
2022/06/11 08:31:13;;;;;;;14.23;4.03;;;;;;;19.28;73.22;68909.50;5009283;28;20983;-88
2022/06/11 08:33:39;;;;;;;15.45;3.53;;;;;;;19.41;73.10;68921.06;5024881;28;20044;-90
2022/06/11 08:36:04;;;;;;;13.63;4.00;;;;;;;;;;5028357;28;20041;-88
2022/06/11 08:38:29;;;;;;;12.32;3.17;;;;;;;19.79;72.04;68966.63;5024457;28;20626;-89
2022/06/11 08:40:56;;;;;;;13.40;3.03;;;;;;;19.91;72.44;68979.78;5009043;28;20037;-90
2022/06/11 08:43:24;;;;;;;8.68;3.42;;;;;;;19.87;70.70;68973.06;5024634;28;20037;-88
2022/06/11 08:45:55;;;;;;;12.37;3.30;;;;;;;19.90;69.66;68979.22;5025557;28;20037;-89
2022/06/11 08:49:02;;;;;;;12.77;3.83;;;;;;;20.10;68.15;69004.19;5025271;28;20408;-88
2022/06/11 08:51:35;;;;;;;16.25;4.47;;;;;;;20.07;68.73;69000.78;4991806;28;20056;-89
2022/06/11 08:54:22;;;;;;;14.70;3.05;;;;;;;20.03;69.26;68994.06;5006368;28;20050;-88
2022/06/11 08:57:00;;;;;;;11.60;2.53;;;;;;;20.04;67.60;68997.91;5024496;28;20041;-88
2022/06/11 08:59:47;;;;;;;13.20;2.93;;;;;;;20.04;68.07;68991.94;5026294;28;20099;-89
2022/06/11 09:02:31;;;;;;;14.32;3.70;;;;;;;19.90;67.69;68979.22;5018726;28;20045;-89
2022/06/11 09:05:20;;;;;;;12.40;3.47;;;;;;;19.99;69.57;68989.50;4974741;28;20052;-89
2022/06/11 09:07:55;;;;;;;14.30;3.15;;;;;;;;;;5022963;28;20049;-88
2022/06/11 09:10:53;;;;;;;15.95;3.60;;;;;;;20.14;68.60;69006.09;5021208;28;20049;-89
2022/06/11 09:13:46;;;;;;;17.48;3.88;;;;;;;20.26;67.53;69017.09;4991988;28;20442;-88
2022/06/11 09:16:43;;;;;;;15.73;3.50;;;;;;;20.16;69.38;69011.06;4990047;28;20091;-88
2022/06/11 09:19:38;;;;;;;12.85;3.10;;;;;;;20.21;69.40;69013.50;5006845;28;20102;-90
2022/06/11 09:22:16;;;;;;;12.18;3.25;;;;;;;20.31;66.70;69021.66;4978838;28;20394;-88
2022/06/11 09:24:50;;;;;;;11.75;2.50;;;;;;;20.27;65.48;69023.06;5020445;28;20425;-88
2022/06/11 09:27:28;;;;;;;13.40;3.20;;;;;;;20.37;67.77;69028.50;5010079;28;20069;-88
2022/06/11 09:30:05;;;;;;;14.48;3.30;;;;;;;20.47;67.62;69040.53;5008699;28;20033;-88
2022/06/11 09:32:42;;;;;;;13.13;3.30;;;;;;;20.56;65.87;69050.25;5015592;28;20584;-89
2022/06/11 09:35:45;;;;;;;13.38;3.65;;;;;;;20.59;64.92;69053.13;5024807;28;20045;-89
2022/06/11 09:39:06;;;;;;;14.70;3.22;;;;;;;20.38;65.31;69035.06;4995300;28;20052;-88
2022/06/11 09:42:04;;;;;;;11.68;2.92;;;;;;;20.43;64.61;69038.66;4949430;28;20414;-89
2022/06/11 09:44:38;;;;;;;11.07;3.55;;;;;;;;;;4945601;28;20071;-89
2022/06/11 09:47:16;;;;;;;10.88;3.08;;;;;;;20.55;65.31;69049.13;4985573;28;20493;-89
2022/06/11 09:50:03;;;;;;;10.32;2.60;;;;;;;20.57;62.82;69056.25;5024808;28;20454;-88
2022/06/11 09:52:44;;;;;;;16.10;2.58;;;;;;;20.44;62.66;69041.94;5020346;28;20176;-87
2022/06/11 09:55:26;;;;;;;13.25;3.15;;;;;;;20.67;63.62;69065.56;5026989;28;20041;-87
2022/06/11 09:58:13;;;;;;;14.43;2.90;;;;;;;20.81;63.59;69083.69;5027391;28;20464;-87
2022/06/11 10:00:45;;;;;;;10.18;3.17;;;;;;;20.94;62.88;69098.00;5007964;28;20037;-87
2022/06/11 10:05:47;;;;;;;12.70;3.10;;;;;;;21.14;62.93;69117.59;5024814;28;20068;-87
2022/06/11 10:08:26;;;;;;;12.63;2.43;;;;;;;21.19;62.62;69126.03;5041710;22;20057;-80
2022/06/11 10:10:52;;;;;;;12.63;3.33;;;;;;;21.18;62.57;69122.19;5035643;28;20103;-80
2022/06/11 10:13:36;;;;;;;9.15;2.78;;;;;;;21.39;63.32;69145.66;5034998;28;20041;-78
2022/06/11 10:16:27;;;;;;;9.13;2.75;;;;;;;21.45;62.59;69149.22;5016823;28;20037;-80
2022/06/11 10:18:59;;;;;;;12.73;3.50;;;;;;;21.34;62.61;69140.47;5037236;28;20039;-80
2022/06/11 10:21:27;;;;;;;10.27;3.25;;;;;;;21.30;63.24;69132.63;5033063;28;20034;-77
2022/06/11 10:24:05;;;;;;;14.57;3.20;;;;;;;21.18;63.49;69124.88;5036420;28;20051;-78
2022/06/11 10:26:36;;;;;;;10.77;3.43;;;;;;;21.21;63.59;69127.75;5031451;28;20079;-78
2022/06/11 10:29:01;;;;;;;12.02;3.10;;;;;;;21.10;63.01;69113.03;5035929;28;20045;-79
2022/06/11 10:31:45;;;;;;;11.75;3.30;;;;;;;21.05;64.32;69110.00;5034750;28;20528;-79
2022/06/11 10:34:10;;;;;;;11.18;3.22;;;;;;;20.89;63.29;69089.59;5029966;28;20037;-80
2022/06/11 10:36:42;;;;;;;12.93;3.33;;;;;;;20.81;64.36;69080.44;5039212;28;20041;-79
2022/06/11 10:39:25;;;;;;;10.05;3.00;;;;;;;20.96;64.37;69095.44;5039721;28;20037;-79
2022/06/11 10:42:27;;;;;;;9.25;2.88;;;;;;;21.15;63.85;69121.47;5038980;28;20051;-79
2022/06/11 10:44:54;;;;;;;10.82;2.00;;;;;;;20.96;60.27;69095.44;5030576;28;21352;-78
2022/06/11 10:47:31;;;;;;;11.07;2.70;;;;;;;21.00;59.35;69101.56;5035922;28;20049;-78
2022/06/11 10:50:07;;;;;;;10.35;2.58;;;;;;;21.04;60.74;69106.16;4990767;28;20124;-79
2022/06/11 10:52:43;;;;;;;11.40;3.10;;;;;;;21.14;61.85;69115.44;5026618;28;20042;-77
2022/06/11 10:55:31;;;;;;;13.07;3.83;;;;;;;21.03;62.11;69102.31;5014409;28;20488;-79
2022/06/11 10:58:23;;;;;;;14.73;2.85;;;;;;;20.94;61.76;69098.56;5010098;28;20511;-80
2022/06/11 11:01:01;;;;;;;13.07;3.20;;;;;;;21.00;62.38;69098.88;5035652;28;20068;-78
2022/06/11 11:03:50;;;;;;;14.70;2.83;;;;;;;21.06;62.42;69109.03;5033787;28;20041;-80
2022/06/11 11:06:34;;;;;;;;;;;;;;;21.10;62.50;69113.59;5036167;28;20091;-80
2022/06/11 11:09:06;;;;;;;9.52;2.80;;;;;;;21.00;62.66;69098.88;5019090;28;19921;-80
2022/06/11 11:11:48;;;;;;;13.85;3.55;;;;;;;21.25;64.38;69127.47;5037706;28;20033;-80
2022/06/11 11:14:18;;;;;;;10.95;2.95;;;;;;;21.46;64.25;69155.78;5040698;28;20037;-79
2022/06/11 11:16:48;;;;;;;12.90;3.78;;;;;;;21.55;63.98;69163.97;5023196;28;20033;-78
2022/06/11 11:19:21;;;;;;;12.40;3.10;;;;;;;21.60;64.16;69177.22;5037514;28;20037;-80
2022/06/11 11:21:56;;;;;;;12.45;3.38;;;;;;;21.55;63.32;69166.09;5036167;28;20116;-80
2022/06/11 11:24:27;;;;;;;13.25;3.53;;;;;;;21.52;63.76;69154.53;5036588;28;20065;-80
2022/06/11 11:26:59;;;;;;;13.73;3.38;;;;;;;21.67;65.19;69173.84;5019060;28;20046;-77
2022/06/11 11:29:32;;;;;;;14.07;3.35;;;;;;;21.86;64.11;69201.56;5033646;28;20068;-79
2022/06/11 11:32:04;;;;;;;13.73;3.08;;;;;;;21.77;61.33;69185.84;5028923;28;20101;-78
2022/06/11 11:34:33;;;;;;;12.20;3.67;;;;;;;21.67;63.08;69176.56;5020201;28;20404;-80
2022/06/11 11:37:04;;;;;;;13.07;3.65;;;;;;;21.90;62.46;69202.31;5033253;28;20048;-80
2022/06/11 11:39:31;;;;;;;14.15;3.40;;;;;;;21.80;62.81;69189.28;5032759;28;20041;-78
2022/06/11 11:42:08;;;;;;;11.05;3.25;;;;;;;22.13;63.10;69231.34;5032869;28;20045;-79
2022/06/11 11:44:49;;;;;;;16.95;4.15;;;;;;;21.93;62.92;69203.03;5030428;28;20117;-79
2022/06/11 11:47:27;;;;;;;10.65;3.13;;;;;;;22.40;62.51;69261.13;5020240;28;20033;-79
2022/06/11 11:50:08;;;;;;;11.60;3.42;;;;;;;22.24;63.32;69238.53;5039786;28;20389;-80
2022/06/11 11:52:45;;;;;;;13.07;3.38;;;;;;;22.16;61.86;69228.78;5040402;28;20046;-79
2022/06/11 11:55:21;;;;;;;13.20;3.35;;;;;;;22.17;61.65;69233.22;5035282;28;20042;-78
2022/06/11 11:57:55;;;;;;;9.50;2.97;;;;;;;22.44;62.66;69260.28;5031078;28;20420;-78
2022/06/11 12:00:25;;;;;;;14.02;3.08;;;;;;;22.38;59.61;69259.41;5033099;28;20033;-78
2022/06/11 12:02:55;;;;;;;9.95;2.33;;;;;;;22.48;61.31;69267.59;5024639;28;20049;-78